sensor_id;sensor_type;location;lat;lon;timestamp;temperature;humidity
66962;HTU21D;53897;51.126;5.868;2023-08-30T00:00:45;26.12;49.42
66962;HTU21D;53897;51.126;5.868;2023-08-30T00:03:11;26.12;49.39
66962;HTU21D;53897;51.126;5.868;2023-08-30T00:05:42;26.11;49.37
66962;HTU21D;53897;51.126;5.868;2023-08-30T00:08:10;26.10;49.33
66962;HTU21D;53897;51.126;5.868;2023-08-30T00:10:36;26.10;49.32
66962;HTU21D;53897;51.126;5.868;2023-08-30T00:13:03;26.10;49.30
66962;HTU21D;53897;51.126;5.868;2023-08-30T00:15:29;26.09;49.29
66962;HTU21D;53897;51.126;5.868;2023-08-30T00:17:55;26.08;49.29
66962;HTU21D;53897;51.126;5.868;2023-08-30T00:20:21;26.08;49.27
66962;HTU21D;53897;51.126;5.868;2023-08-30T00:22:47;26.07;49.28
66962;HTU21D;53897;51.126;5.868;2023-08-30T00:25:14;26.08;49.25
66962;HTU21D;53897;51.126;5.868;2023-08-30T00:27:41;26.06;49.24
66962;HTU21D;53897;51.126;5.868;2023-08-30T00:30:07;26.06;49.23
66962;HTU21D;53897;51.126;5.868;2023-08-30T00:32:35;26.05;49.20
66962;HTU21D;53897;51.126;5.868;2023-08-30T00:35:01;26.05;49.18
66962;HTU21D;53897;51.126;5.868;2023-08-30T00:37:26;26.06;49.08
66962;HTU21D;53897;51.126;5.868;2023-08-30T00:39:52;26.06;49.08
66962;HTU21D;53897;51.126;5.868;2023-08-30T00:42:18;26.04;49.10
66962;HTU21D;53897;51.126;5.868;2023-08-30T00:44:43;26.04;49.11
66962;HTU21D;53897;51.126;5.868;2023-08-30T00:47:09;26.02;49.13
66962;HTU21D;53897;51.126;5.868;2023-08-30T00:49:35;26.02;49.14
66962;HTU21D;53897;51.126;5.868;2023-08-30T00:52:10;26.02;49.13
66962;HTU21D;53897;51.126;5.868;2023-08-30T00:54:37;26.01;49.15
66962;HTU21D;53897;51.126;5.868;2023-08-30T00:57:04;26.03;49.17
66962;HTU21D;53897;51.126;5.868;2023-08-30T00:59:33;25.99;49.17
66962;HTU21D;53897;51.126;5.868;2023-08-30T01:01:59;25.99;49.17
66962;HTU21D;53897;51.126;5.868;2023-08-30T01:04:27;25.98;49.16
66962;HTU21D;53897;51.126;5.868;2023-08-30T01:06:53;25.98;49.18
66962;HTU21D;53897;51.126;5.868;2023-08-30T01:09:19;25.98;49.16
66962;HTU21D;53897;51.126;5.868;2023-08-30T01:11:57;25.96;49.17
66962;HTU21D;53897;51.126;5.868;2023-08-30T01:17:00;25.97;49.15
66962;HTU21D;53897;51.126;5.868;2023-08-30T01:27:47;25.94;49.11
66962;HTU21D;53897;51.126;5.868;2023-08-30T01:30:16;25.94;49.09
66962;HTU21D;53897;51.126;5.868;2023-08-30T01:32:43;25.94;49.09
66962;HTU21D;53897;51.126;5.868;2023-08-30T01:35:10;25.93;49.07
66962;HTU21D;53897;51.126;5.868;2023-08-30T01:37:38;25.92;49.08
66962;HTU21D;53897;51.126;5.868;2023-08-30T01:40:08;25.92;49.07
66962;HTU21D;53897;51.126;5.868;2023-08-30T01:42:36;25.93;49.05
66962;HTU21D;53897;51.126;5.868;2023-08-30T01:45:03;25.90;49.03
66962;HTU21D;53897;51.126;5.868;2023-08-30T01:47:30;25.91;49.01
66962;HTU21D;53897;51.126;5.868;2023-08-30T01:49:57;25.91;48.99
66962;HTU21D;53897;51.126;5.868;2023-08-30T01:52:24;25.91;48.95
66962;HTU21D;53897;51.126;5.868;2023-08-30T01:54:52;25.92;48.97
66962;HTU21D;53897;51.126;5.868;2023-08-30T01:57:20;25.90;48.99
66962;HTU21D;53897;51.126;5.868;2023-08-30T01:59:46;25.90;48.99
66962;HTU21D;53897;51.126;5.868;2023-08-30T02:02:11;25.89;48.99
66962;HTU21D;53897;51.126;5.868;2023-08-30T02:04:37;25.89;48.98
66962;HTU21D;53897;51.126;5.868;2023-08-30T02:07:07;25.89;48.97
66962;HTU21D;53897;51.126;5.868;2023-08-30T02:09:40;25.87;48.99
66962;HTU21D;53897;51.126;5.868;2023-08-30T02:12:14;25.87;48.99
66962;HTU21D;53897;51.126;5.868;2023-08-30T02:14:45;25.87;48.99
66962;HTU21D;53897;51.126;5.868;2023-08-30T02:17:14;25.84;48.99
66962;HTU21D;53897;51.126;5.868;2023-08-30T02:19:43;25.86;48.99
66962;HTU21D;53897;51.126;5.868;2023-08-30T02:22:09;25.84;48.98
66962;HTU21D;53897;51.126;5.868;2023-08-30T02:24:35;25.84;48.96
66962;HTU21D;53897;51.126;5.868;2023-08-30T02:27:01;25.84;48.95
66962;HTU21D;53897;51.126;5.868;2023-08-30T02:29:27;25.84;48.92
66962;HTU21D;53897;51.126;5.868;2023-08-30T02:31:52;25.83;48.92
66962;HTU21D;53897;51.126;5.868;2023-08-30T02:34:21;25.82;48.90
66962;HTU21D;53897;51.126;5.868;2023-08-30T02:36:46;25.82;48.91
66962;HTU21D;53897;51.126;5.868;2023-08-30T02:39:14;25.82;48.89
66962;HTU21D;53897;51.126;5.868;2023-08-30T02:41:41;25.82;48.89
66962;HTU21D;53897;51.126;5.868;2023-08-30T02:44:11;25.80;48.89
66962;HTU21D;53897;51.126;5.868;2023-08-30T02:46:37;25.81;48.89
66962;HTU21D;53897;51.126;5.868;2023-08-30T02:49:07;25.80;48.86
66962;HTU21D;53897;51.126;5.868;2023-08-30T02:51:32;25.79;48.84
66962;HTU21D;53897;51.126;5.868;2023-08-30T02:53:58;25.79;48.86
66962;HTU21D;53897;51.126;5.868;2023-08-30T02:56:24;25.78;48.85
66962;HTU21D;53897;51.126;5.868;2023-08-30T02:58:50;25.79;48.84
66962;HTU21D;53897;51.126;5.868;2023-08-30T03:01:16;25.78;48.85
66962;HTU21D;53897;51.126;5.868;2023-08-30T03:03:42;25.77;48.85
66962;HTU21D;53897;51.126;5.868;2023-08-30T03:06:07;25.78;48.87
66962;HTU21D;53897;51.126;5.868;2023-08-30T03:08:33;25.78;48.86
66962;HTU21D;53897;51.126;5.868;2023-08-30T03:11:10;25.77;48.83
66962;HTU21D;53897;51.126;5.868;2023-08-30T03:13:37;25.77;48.85
66962;HTU21D;53897;51.126;5.868;2023-08-30T03:16:13;25.76;48.85
66962;HTU21D;53897;51.126;5.868;2023-08-30T03:18:40;25.75;48.85
66962;HTU21D;53897;51.126;5.868;2023-08-30T03:21:06;25.75;48.82
66962;HTU21D;53897;51.126;5.868;2023-08-30T03:23:33;25.75;48.82
66962;HTU21D;53897;51.126;5.868;2023-08-30T03:26:12;25.74;48.82
66962;HTU21D;53897;51.126;5.868;2023-08-30T03:28:38;25.75;48.79
66962;HTU21D;53897;51.126;5.868;2023-08-30T03:33:37;25.73;48.79
66962;HTU21D;53897;51.126;5.868;2023-08-30T03:36:03;25.73;48.77
66962;HTU21D;53897;51.126;5.868;2023-08-30T03:38:29;25.72;48.76
66962;HTU21D;53897;51.126;5.868;2023-08-30T03:40:55;25.72;48.77
66962;HTU21D;53897;51.126;5.868;2023-08-30T03:43:20;25.71;48.74
66962;HTU21D;53897;51.126;5.868;2023-08-30T03:45:46;25.72;48.75
66962;HTU21D;53897;51.126;5.868;2023-08-30T03:48:12;25.71;48.74
66962;HTU21D;53897;51.126;5.868;2023-08-30T03:50:37;25.71;48.75
66962;HTU21D;53897;51.126;5.868;2023-08-30T03:53:03;25.68;48.75
66962;HTU21D;53897;51.126;5.868;2023-08-30T03:55:28;25.68;48.73
66962;HTU21D;53897;51.126;5.868;2023-08-30T03:57:56;25.68;48.70
66962;HTU21D;53897;51.126;5.868;2023-08-30T04:00:22;25.67;48.72
66962;HTU21D;53897;51.126;5.868;2023-08-30T04:02:49;25.68;48.70
66962;HTU21D;53897;51.126;5.868;2023-08-30T04:05:15;25.66;48.70
66962;HTU21D;53897;51.126;5.868;2023-08-30T04:07:41;25.66;48.70
66962;HTU21D;53897;51.126;5.868;2023-08-30T04:10:07;25.66;48.69
66962;HTU21D;53897;51.126;5.868;2023-08-30T04:12:33;25.66;48.69
66962;HTU21D;53897;51.126;5.868;2023-08-30T04:15:01;25.65;48.70
66962;HTU21D;53897;51.126;5.868;2023-08-30T04:17:27;25.65;48.69
66962;HTU21D;53897;51.126;5.868;2023-08-30T04:19:54;25.64;48.63
66962;HTU21D;53897;51.126;5.868;2023-08-30T04:22:19;25.64;48.65
66962;HTU21D;53897;51.126;5.868;2023-08-30T04:24:46;25.65;48.66
66962;HTU21D;53897;51.126;5.868;2023-08-30T04:27:12;25.63;48.65
66962;HTU21D;53897;51.126;5.868;2023-08-30T04:29:38;25.63;48.47
66962;HTU21D;53897;51.126;5.868;2023-08-30T04:32:04;25.62;48.44
66962;HTU21D;53897;51.126;5.868;2023-08-30T04:34:31;25.61;48.47
66962;HTU21D;53897;51.126;5.868;2023-08-30T04:36:57;25.61;48.44
66962;HTU21D;53897;51.126;5.868;2023-08-30T04:39:23;25.61;48.41
66962;HTU21D;53897;51.126;5.868;2023-08-30T04:41:50;25.62;48.40
66962;HTU21D;53897;51.126;5.868;2023-08-30T04:44:17;25.63;48.40
66962;HTU21D;53897;51.126;5.868;2023-08-30T04:46:44;25.63;48.36
66962;HTU21D;53897;51.126;5.868;2023-08-30T04:49:10;25.62;48.35
66962;HTU21D;53897;51.126;5.868;2023-08-30T04:51:36;25.63;48.33
66962;HTU21D;53897;51.126;5.868;2023-08-30T04:54:01;25.62;48.35
66962;HTU21D;53897;51.126;5.868;2023-08-30T04:56:27;25.61;48.37
66962;HTU21D;53897;51.126;5.868;2023-08-30T04:58:53;25.60;48.38
66962;HTU21D;53897;51.126;5.868;2023-08-30T05:01:18;25.59;48.44
66962;HTU21D;53897;51.126;5.868;2023-08-30T05:03:48;25.56;48.48
66962;HTU21D;53897;51.126;5.868;2023-08-30T05:06:15;25.56;48.56
66962;HTU21D;53897;51.126;5.868;2023-08-30T05:08:42;25.54;48.53
66962;HTU21D;53897;51.126;5.868;2023-08-30T05:11:08;25.52;48.60
66962;HTU21D;53897;51.126;5.868;2023-08-30T05:13:36;25.51;48.66
66962;HTU21D;53897;51.126;5.868;2023-08-30T05:16:02;25.49;48.69
66962;HTU21D;53897;51.126;5.868;2023-08-30T05:18:28;25.46;48.82
66962;HTU21D;53897;51.126;5.868;2023-08-30T05:20:54;25.40;48.94
66962;HTU21D;53897;51.126;5.868;2023-08-30T05:23:20;25.39;49.02
66962;HTU21D;53897;51.126;5.868;2023-08-30T05:25:46;25.40;48.92
66962;HTU21D;53897;51.126;5.868;2023-08-30T05:28:13;25.43;48.83
66962;HTU21D;53897;51.126;5.868;2023-08-30T05:30:43;25.44;48.80
66962;HTU21D;53897;51.126;5.868;2023-08-30T05:33:23;25.45;48.73
66962;HTU21D;53897;51.126;5.868;2023-08-30T05:36:16;25.45;48.82
66962;HTU21D;53897;51.126;5.868;2023-08-30T05:38:54;25.44;48.83
66962;HTU21D;53897;51.126;5.868;2023-08-30T05:41:26;25.45;48.81
66962;HTU21D;53897;51.126;5.868;2023-08-30T05:43:54;25.45;48.84
66962;HTU21D;53897;51.126;5.868;2023-08-30T05:46:20;25.46;48.83
66962;HTU21D;53897;51.126;5.868;2023-08-30T05:48:46;25.46;48.86
66962;HTU21D;53897;51.126;5.868;2023-08-30T05:51:11;25.46;48.72
66962;HTU21D;53897;51.126;5.868;2023-08-30T05:53:37;25.48;48.63
66962;HTU21D;53897;51.126;5.868;2023-08-30T05:56:04;25.46;48.56
66962;HTU21D;53897;51.126;5.868;2023-08-30T05:58:29;25.48;48.47
66962;HTU21D;53897;51.126;5.868;2023-08-30T06:00:56;25.49;48.37
66962;HTU21D;53897;51.126;5.868;2023-08-30T06:03:22;25.50;48.31
66962;HTU21D;53897;51.126;5.868;2023-08-30T06:05:48;25.48;48.30
66962;HTU21D;53897;51.126;5.868;2023-08-30T06:08:14;25.49;48.29
66962;HTU21D;53897;51.126;5.868;2023-08-30T06:10:40;25.50;48.34
66962;HTU21D;53897;51.126;5.868;2023-08-30T06:13:06;25.48;48.34
66962;HTU21D;53897;51.126;5.868;2023-08-30T06:15:32;25.49;48.22
66962;HTU21D;53897;51.126;5.868;2023-08-30T06:17:58;25.49;48.14
66962;HTU21D;53897;51.126;5.868;2023-08-30T06:20:24;25.49;48.13
66962;HTU21D;53897;51.126;5.868;2023-08-30T06:22:50;25.48;48.22
66962;HTU21D;53897;51.126;5.868;2023-08-30T06:25:16;25.47;48.34
66962;HTU21D;53897;51.126;5.868;2023-08-30T06:27:54;25.45;48.47
66962;HTU21D;53897;51.126;5.868;2023-08-30T06:30:20;25.40;48.50
66962;HTU21D;53897;51.126;5.868;2023-08-30T06:32:45;25.39;48.60
66962;HTU21D;53897;51.126;5.868;2023-08-30T06:35:11;25.35;48.70
66962;HTU21D;53897;51.126;5.868;2023-08-30T06:37:37;25.31;48.84
66962;HTU21D;53897;51.126;5.868;2023-08-30T06:40:03;25.31;48.71
66962;HTU21D;53897;51.126;5.868;2023-08-30T06:42:29;25.31;48.50
66962;HTU21D;53897;51.126;5.868;2023-08-30T06:44:55;25.33;48.32
66962;HTU21D;53897;51.126;5.868;2023-08-30T06:47:20;25.34;48.17
66962;HTU21D;53897;51.126;5.868;2023-08-30T06:49:46;25.35;48.03
66962;HTU21D;53897;51.126;5.868;2023-08-30T06:52:12;25.36;47.89
66962;HTU21D;53897;51.126;5.868;2023-08-30T06:54:37;25.35;47.74
66962;HTU21D;53897;51.126;5.868;2023-08-30T06:57:03;25.36;47.63
66962;HTU21D;53897;51.126;5.868;2023-08-30T06:59:29;25.37;47.51
66962;HTU21D;53897;51.126;5.868;2023-08-30T07:01:55;25.37;47.41
66962;HTU21D;53897;51.126;5.868;2023-08-30T07:04:21;25.37;47.31
66962;HTU21D;53897;51.126;5.868;2023-08-30T07:06:47;25.37;47.24
66962;HTU21D;53897;51.126;5.868;2023-08-30T07:09:12;25.37;47.14
66962;HTU21D;53897;51.126;5.868;2023-08-30T07:11:38;25.37;47.05
66962;HTU21D;53897;51.126;5.868;2023-08-30T07:14:04;25.37;46.99
66962;HTU21D;53897;51.126;5.868;2023-08-30T07:16:30;25.37;46.99
66962;HTU21D;53897;51.126;5.868;2023-08-30T07:18:57;25.37;47.07
66962;HTU21D;53897;51.126;5.868;2023-08-30T07:21:23;25.36;47.05
66962;HTU21D;53897;51.126;5.868;2023-08-30T07:23:49;25.37;47.06
66962;HTU21D;53897;51.126;5.868;2023-08-30T07:26:15;25.38;47.13
66962;HTU21D;53897;51.126;5.868;2023-08-30T07:28:41;25.37;47.08
66962;HTU21D;53897;51.126;5.868;2023-08-30T07:31:06;25.37;47.11
66962;HTU21D;53897;51.126;5.868;2023-08-30T07:33:32;25.37;47.15
66962;HTU21D;53897;51.126;5.868;2023-08-30T07:35:58;25.37;47.09
66962;HTU21D;53897;51.126;5.868;2023-08-30T07:38:24;25.36;47.06
66962;HTU21D;53897;51.126;5.868;2023-08-30T07:40:50;25.37;47.02
66962;HTU21D;53897;51.126;5.868;2023-08-30T07:43:16;25.37;46.96
66962;HTU21D;53897;51.126;5.868;2023-08-30T07:45:41;25.38;46.90
66962;HTU21D;53897;51.126;5.868;2023-08-30T07:48:07;25.36;46.87
66962;HTU21D;53897;51.126;5.868;2023-08-30T07:50:33;25.35;46.83
66962;HTU21D;53897;51.126;5.868;2023-08-30T07:52:58;25.35;46.90
66962;HTU21D;53897;51.126;5.868;2023-08-30T07:55:24;25.35;46.90
66962;HTU21D;53897;51.126;5.868;2023-08-30T07:57:50;25.35;46.93
66962;HTU21D;53897;51.126;5.868;2023-08-30T08:00:15;25.32;46.93
66962;HTU21D;53897;51.126;5.868;2023-08-30T08:02:44;25.33;46.99
66962;HTU21D;53897;51.126;5.868;2023-08-30T08:05:09;25.34;46.97
66962;HTU21D;53897;51.126;5.868;2023-08-30T08:07:39;25.33;46.99
66962;HTU21D;53897;51.126;5.868;2023-08-30T08:10:06;25.33;47.02
66962;HTU21D;53897;51.126;5.868;2023-08-30T08:12:33;25.34;47.03
66962;HTU21D;53897;51.126;5.868;2023-08-30T08:14:58;25.33;47.05
66962;HTU21D;53897;51.126;5.868;2023-08-30T08:17:24;25.33;47.08
66962;HTU21D;53897;51.126;5.868;2023-08-30T08:19:50;25.33;47.10
66962;HTU21D;53897;51.126;5.868;2023-08-30T08:22:16;25.33;47.15
66962;HTU21D;53897;51.126;5.868;2023-08-30T08:24:41;25.32;47.13
66962;HTU21D;53897;51.126;5.868;2023-08-30T08:27:09;25.33;47.15
66962;HTU21D;53897;51.126;5.868;2023-08-30T08:29:34;25.32;47.18
66962;HTU21D;53897;51.126;5.868;2023-08-30T08:32:00;25.32;47.21
66962;HTU21D;53897;51.126;5.868;2023-08-30T08:34:26;25.32;47.18
66962;HTU21D;53897;51.126;5.868;2023-08-30T08:36:52;25.32;47.19
66962;HTU21D;53897;51.126;5.868;2023-08-30T08:39:17;25.33;47.17
66962;HTU21D;53897;51.126;5.868;2023-08-30T08:41:44;25.32;47.19
66962;HTU21D;53897;51.126;5.868;2023-08-30T08:44:12;25.33;47.23
66962;HTU21D;53897;51.126;5.868;2023-08-30T08:46:39;25.32;47.23
66962;HTU21D;53897;51.126;5.868;2023-08-30T08:49:13;25.32;47.25
66962;HTU21D;53897;51.126;5.868;2023-08-30T08:51:43;25.32;47.27
66962;HTU21D;53897;51.126;5.868;2023-08-30T08:54:10;25.32;47.28
66962;HTU21D;53897;51.126;5.868;2023-08-30T08:56:37;25.32;47.28
66962;HTU21D;53897;51.126;5.868;2023-08-30T08:59:04;25.32;47.31
66962;HTU21D;53897;51.126;5.868;2023-08-30T09:01:35;25.31;47.37
66962;HTU21D;53897;51.126;5.868;2023-08-30T09:04:09;25.31;47.43
66962;HTU21D;53897;51.126;5.868;2023-08-30T09:06:37;25.31;47.47
66962;HTU21D;53897;51.126;5.868;2023-08-30T09:09:04;25.32;47.51
66962;HTU21D;53897;51.126;5.868;2023-08-30T09:11:30;25.31;47.56
66962;HTU21D;53897;51.126;5.868;2023-08-30T09:13:56;25.31;47.60
66962;HTU21D;53897;51.126;5.868;2023-08-30T09:16:22;25.31;47.64
66962;HTU21D;53897;51.126;5.868;2023-08-30T09:19:01;25.32;47.70
66962;HTU21D;53897;51.126;5.868;2023-08-30T09:21:27;25.31;47.72
66962;HTU21D;53897;51.126;5.868;2023-08-30T09:24:05;25.30;47.77
66962;HTU21D;53897;51.126;5.868;2023-08-30T09:26:34;25.31;47.79
66962;HTU21D;53897;51.126;5.868;2023-08-30T09:29:06;25.28;47.80
66962;HTU21D;53897;51.126;5.868;2023-08-30T09:31:36;25.30;47.75
66962;HTU21D;53897;51.126;5.868;2023-08-30T09:34:03;25.30;47.73
66962;HTU21D;53897;51.126;5.868;2023-08-30T09:36:35;25.29;47.72
66962;HTU21D;53897;51.126;5.868;2023-08-30T09:39:09;25.30;47.73
66962;HTU21D;53897;51.126;5.868;2023-08-30T09:41:37;25.30;47.72
66962;HTU21D;53897;51.126;5.868;2023-08-30T09:44:07;25.30;47.73
66962;HTU21D;53897;51.126;5.868;2023-08-30T09:46:43;25.30;47.73
66962;HTU21D;53897;51.126;5.868;2023-08-30T09:49:10;25.29;47.71
66962;HTU21D;53897;51.126;5.868;2023-08-30T09:51:39;25.29;47.73
66962;HTU21D;53897;51.126;5.868;2023-08-30T09:54:17;25.30;47.74
66962;HTU21D;53897;51.126;5.868;2023-08-30T09:56:44;25.31;47.77
66962;HTU21D;53897;51.126;5.868;2023-08-30T09:59:11;25.29;47.77
66962;HTU21D;53897;51.126;5.868;2023-08-30T10:01:38;25.30;47.80
66962;HTU21D;53897;51.126;5.868;2023-08-30T10:04:04;25.31;47.78
66962;HTU21D;53897;51.126;5.868;2023-08-30T10:06:30;25.31;47.79
66962;HTU21D;53897;51.126;5.868;2023-08-30T10:08:57;25.31;47.80
66962;HTU21D;53897;51.126;5.868;2023-08-30T10:11:24;25.30;47.83
66962;HTU21D;53897;51.126;5.868;2023-08-30T10:13:51;25.30;47.83
66962;HTU21D;53897;51.126;5.868;2023-08-30T10:16:19;25.31;47.81
66962;HTU21D;53897;51.126;5.868;2023-08-30T10:18:53;25.31;47.83
66962;HTU21D;53897;51.126;5.868;2023-08-30T10:21:21;25.31;47.86
66962;HTU21D;53897;51.126;5.868;2023-08-30T10:23:51;25.32;47.89
66962;HTU21D;53897;51.126;5.868;2023-08-30T10:26:24;25.33;47.91
66962;HTU21D;53897;51.126;5.868;2023-08-30T10:28:53;25.32;47.94
66962;HTU21D;53897;51.126;5.868;2023-08-30T10:31:19;25.34;47.97
66962;HTU21D;53897;51.126;5.868;2023-08-30T10:33:52;25.32;48.01
66962;HTU21D;53897;51.126;5.868;2023-08-30T10:36:23;25.32;48.02
66962;HTU21D;53897;51.126;5.868;2023-08-30T10:38:55;25.33;48.00
66962;HTU21D;53897;51.126;5.868;2023-08-30T10:41:30;25.32;48.05
66962;HTU21D;53897;51.126;5.868;2023-08-30T10:43:55;25.33;48.06
66962;HTU21D;53897;51.126;5.868;2023-08-30T10:46:32;25.33;48.08
66962;HTU21D;53897;51.126;5.868;2023-08-30T10:49:14;25.31;48.06
66962;HTU21D;53897;51.126;5.868;2023-08-30T10:51:41;25.30;48.05
66962;HTU21D;53897;51.126;5.868;2023-08-30T10:54:17;25.32;48.05
66962;HTU21D;53897;51.126;5.868;2023-08-30T10:56:55;25.31;48.05
66962;HTU21D;53897;51.126;5.868;2023-08-30T10:59:28;25.31;48.06
66962;HTU21D;53897;51.126;5.868;2023-08-30T11:01:55;25.32;48.08
66962;HTU21D;53897;51.126;5.868;2023-08-30T11:04:22;25.32;48.07
66962;HTU21D;53897;51.126;5.868;2023-08-30T11:06:50;25.31;48.08
66962;HTU21D;53897;51.126;5.868;2023-08-30T11:09:22;25.31;48.08
66962;HTU21D;53897;51.126;5.868;2023-08-30T11:11:49;25.31;48.11
66962;HTU21D;53897;51.126;5.868;2023-08-30T11:14:17;25.31;48.10
66962;HTU21D;53897;51.126;5.868;2023-08-30T11:16:43;25.31;48.12
66962;HTU21D;53897;51.126;5.868;2023-08-30T11:19:10;25.31;48.12
66962;HTU21D;53897;51.126;5.868;2023-08-30T11:21:39;25.31;48.11
66962;HTU21D;53897;51.126;5.868;2023-08-30T11:24:07;25.32;48.12
66962;HTU21D;53897;51.126;5.868;2023-08-30T11:26:33;25.31;48.13
66962;HTU21D;53897;51.126;5.868;2023-08-30T11:29:09;25.32;48.14
66962;HTU21D;53897;51.126;5.868;2023-08-30T11:31:36;25.30;48.15
66962;HTU21D;53897;51.126;5.868;2023-08-30T11:34:02;25.30;48.14
66962;HTU21D;53897;51.126;5.868;2023-08-30T11:36:29;25.30;48.14
66962;HTU21D;53897;51.126;5.868;2023-08-30T11:38:56;25.30;48.15
66962;HTU21D;53897;51.126;5.868;2023-08-30T11:41:25;25.30;48.18
66962;HTU21D;53897;51.126;5.868;2023-08-30T11:43:52;25.30;48.16
66962;HTU21D;53897;51.126;5.868;2023-08-30T11:46:18;25.31;48.16
66962;HTU21D;53897;51.126;5.868;2023-08-30T11:48:47;25.30;48.21
66962;HTU21D;53897;51.126;5.868;2023-08-30T11:51:13;25.30;48.21
66962;HTU21D;53897;51.126;5.868;2023-08-30T11:53:40;25.31;48.25
66962;HTU21D;53897;51.126;5.868;2023-08-30T11:56:06;25.30;48.28
66962;HTU21D;53897;51.126;5.868;2023-08-30T11:58:36;25.30;48.30
66962;HTU21D;53897;51.126;5.868;2023-08-30T12:01:04;25.30;48.33
66962;HTU21D;53897;51.126;5.868;2023-08-30T12:03:31;25.30;48.35
66962;HTU21D;53897;51.126;5.868;2023-08-30T12:05:58;25.31;48.36
66962;HTU21D;53897;51.126;5.868;2023-08-30T12:08:29;25.30;48.41
66962;HTU21D;53897;51.126;5.868;2023-08-30T12:10:56;25.30;48.45
66962;HTU21D;53897;51.126;5.868;2023-08-30T12:13:31;25.32;48.47
66962;HTU21D;53897;51.126;5.868;2023-08-30T12:15:58;25.31;48.46
66962;HTU21D;53897;51.126;5.868;2023-08-30T12:18:29;25.32;48.47
66962;HTU21D;53897;51.126;5.868;2023-08-30T12:20:57;25.32;48.46
66962;HTU21D;53897;51.126;5.868;2023-08-30T12:23:24;25.31;48.48
66962;HTU21D;53897;51.126;5.868;2023-08-30T12:26:01;25.30;48.50
66962;HTU21D;53897;51.126;5.868;2023-08-30T12:28:31;25.31;48.57
66962;HTU21D;53897;51.126;5.868;2023-08-30T12:30:57;25.32;48.53
66962;HTU21D;53897;51.126;5.868;2023-08-30T12:33:23;25.32;48.50
66962;HTU21D;53897;51.126;5.868;2023-08-30T12:35:51;25.32;48.51
66962;HTU21D;53897;51.126;5.868;2023-08-30T12:38:17;25.33;48.51
66962;HTU21D;53897;51.126;5.868;2023-08-30T12:40:47;25.32;48.49
66962;HTU21D;53897;51.126;5.868;2023-08-30T12:43:14;25.33;48.48
66962;HTU21D;53897;51.126;5.868;2023-08-30T12:45:40;25.32;48.57
66962;HTU21D;53897;51.126;5.868;2023-08-30T12:48:11;25.30;48.65
66962;HTU21D;53897;51.126;5.868;2023-08-30T12:50:38;25.29;48.63
66962;HTU21D;53897;51.126;5.868;2023-08-30T12:53:05;25.31;48.61
66962;HTU21D;53897;51.126;5.868;2023-08-30T12:55:32;25.31;48.62
66962;HTU21D;53897;51.126;5.868;2023-08-30T12:57:58;25.28;48.75
66962;HTU21D;53897;51.126;5.868;2023-08-30T13:00:24;25.27;48.84
66962;HTU21D;53897;51.126;5.868;2023-08-30T13:02:50;25.25;48.86
66962;HTU21D;53897;51.126;5.868;2023-08-30T13:05:16;25.25;48.86
66962;HTU21D;53897;51.126;5.868;2023-08-30T13:07:42;25.25;48.83
66962;HTU21D;53897;51.126;5.868;2023-08-30T13:10:08;25.27;48.84
66962;HTU21D;53897;51.126;5.868;2023-08-30T13:12:35;25.27;48.83
66962;HTU21D;53897;51.126;5.868;2023-08-30T13:15:02;25.28;48.82
66962;HTU21D;53897;51.126;5.868;2023-08-30T13:17:27;25.29;48.82
66962;HTU21D;53897;51.126;5.868;2023-08-30T13:19:53;25.30;48.78
66962;HTU21D;53897;51.126;5.868;2023-08-30T13:22:19;25.30;48.77
66962;HTU21D;53897;51.126;5.868;2023-08-30T13:24:45;25.31;48.77
66962;HTU21D;53897;51.126;5.868;2023-08-30T13:27:10;25.30;48.80
66962;HTU21D;53897;51.126;5.868;2023-08-30T13:29:37;25.31;48.83
66962;HTU21D;53897;51.126;5.868;2023-08-30T13:32:02;25.30;48.86
66962;HTU21D;53897;51.126;5.868;2023-08-30T13:34:28;25.29;48.89
66962;HTU21D;53897;51.126;5.868;2023-08-30T13:36:54;25.30;48.91
66962;HTU21D;53897;51.126;5.868;2023-08-30T13:39:20;25.30;48.92
66962;HTU21D;53897;51.126;5.868;2023-08-30T13:41:46;25.30;48.92
66962;HTU21D;53897;51.126;5.868;2023-08-30T13:44:13;25.31;48.93
66962;HTU21D;53897;51.126;5.868;2023-08-30T13:46:39;25.30;48.92
66962;HTU21D;53897;51.126;5.868;2023-08-30T13:49:05;25.31;48.94
66962;HTU21D;53897;51.126;5.868;2023-08-30T13:51:31;25.31;48.94
66962;HTU21D;53897;51.126;5.868;2023-08-30T13:53:57;25.32;48.94
66962;HTU21D;53897;51.126;5.868;2023-08-30T13:56:24;25.31;48.93
66962;HTU21D;53897;51.126;5.868;2023-08-30T13:58:50;25.31;48.94
66962;HTU21D;53897;51.126;5.868;2023-08-30T14:01:16;25.32;48.95
66962;HTU21D;53897;51.126;5.868;2023-08-30T14:03:45;25.32;48.94
66962;HTU21D;53897;51.126;5.868;2023-08-30T14:06:11;25.32;48.94
66962;HTU21D;53897;51.126;5.868;2023-08-30T14:08:37;25.32;48.95
66962;HTU21D;53897;51.126;5.868;2023-08-30T14:11:03;25.31;48.97
66962;HTU21D;53897;51.126;5.868;2023-08-30T14:13:29;25.33;48.99
66962;HTU21D;53897;51.126;5.868;2023-08-30T14:16:02;25.33;48.97
66962;HTU21D;53897;51.126;5.868;2023-08-30T14:18:31;25.34;48.99
66962;HTU21D;53897;51.126;5.868;2023-08-30T14:21:01;25.34;48.99
66962;HTU21D;53897;51.126;5.868;2023-08-30T14:23:28;25.35;48.95
66962;HTU21D;53897;51.126;5.868;2023-08-30T14:26:01;25.34;48.95
66962;HTU21D;53897;51.126;5.868;2023-08-30T14:28:29;25.34;48.96
66962;HTU21D;53897;51.126;5.868;2023-08-30T14:30:54;25.33;48.96
66962;HTU21D;53897;51.126;5.868;2023-08-30T14:33:20;25.35;48.95
66962;HTU21D;53897;51.126;5.868;2023-08-30T14:35:46;25.35;48.97
66962;HTU21D;53897;51.126;5.868;2023-08-30T14:38:12;25.36;48.95
66962;HTU21D;53897;51.126;5.868;2023-08-30T14:40:38;25.36;48.91
66962;HTU21D;53897;51.126;5.868;2023-08-30T14:43:04;25.37;48.92
66962;HTU21D;53897;51.126;5.868;2023-08-30T14:45:31;25.37;48.89
66962;HTU21D;53897;51.126;5.868;2023-08-30T14:47:57;25.36;48.89
66962;HTU21D;53897;51.126;5.868;2023-08-30T14:50:22;25.37;48.89
66962;HTU21D;53897;51.126;5.868;2023-08-30T14:52:48;25.38;48.89
66962;HTU21D;53897;51.126;5.868;2023-08-30T14:55:15;25.36;48.89
66962;HTU21D;53897;51.126;5.868;2023-08-30T14:57:40;25.38;48.88
66962;HTU21D;53897;51.126;5.868;2023-08-30T15:00:06;25.37;48.89
66962;HTU21D;53897;51.126;5.868;2023-08-30T15:02:33;25.38;48.87
66962;HTU21D;53897;51.126;5.868;2023-08-30T15:04:58;25.38;48.98
66962;HTU21D;53897;51.126;5.868;2023-08-30T15:07:24;25.39;49.13
66962;HTU21D;53897;51.126;5.868;2023-08-30T15:09:50;25.40;49.32
66962;HTU21D;53897;51.126;5.868;2023-08-30T15:12:16;25.39;49.68
66962;HTU21D;53897;51.126;5.868;2023-08-30T15:14:42;25.40;49.83
66962;HTU21D;53897;51.126;5.868;2023-08-30T15:17:09;25.42;50.02
66962;HTU21D;53897;51.126;5.868;2023-08-30T15:19:37;25.43;50.24
66962;HTU21D;53897;51.126;5.868;2023-08-30T15:22:03;25.44;50.48
66962;HTU21D;53897;51.126;5.868;2023-08-30T15:24:29;25.44;50.53
66962;HTU21D;53897;51.126;5.868;2023-08-30T15:26:54;25.44;50.60
66962;HTU21D;53897;51.126;5.868;2023-08-30T15:29:20;25.45;50.62